Time;durP1;ratioP1;P1;durP2;ratioP2;P2;SDS_P1;SDS_P2;PMS_P1;PMS_P2;Temp;Humidity;BMP_temperature;BMP_pressure;BME280_temperature;BME280_humidity;BME280_pressure;Samples;Min_cycle;Max_cycle;Signal;HPM_P1;HPM_P2
2021/12/31 00:02:21;;;;;;;1999.90;999.90;;;;;;;9.35;100.00;164891.72;5048728;28;20408;-69
2021/12/31 00:04:48;;;;;;;1999.90;999.90;;;;;;;9.20;100.00;164851.81;5049102;28;20053;-67
2021/12/31 00:07:15;;;;;;;1999.90;999.90;;;;;;;9.36;100.00;164894.44;5047843;28;20060;-69
2021/12/31 00:09:42;;;;;;;1999.90;999.90;;;;;;;9.43;100.00;164913.69;5038861;28;20393;-68
2021/12/31 00:12:09;;;;;;;1999.90;999.90;;;;;;;9.47;100.00;164924.72;5048992;28;20076;-69
2021/12/31 00:14:36;;;;;;;1999.90;999.90;;;;;;;9.15;100.00;164839.44;5047310;28;20072;-69
2021/12/31 00:17:07;;;;;;;1999.90;999.90;;;;;;;9.36;100.00;164893.06;5049232;28;20076;-70
2021/12/31 00:19:40;;;;;;;1999.90;999.90;;;;;;;9.13;100.00;164832.53;5048242;28;20481;-69
2021/12/31 00:22:35;;;;;;;1999.90;999.90;;;;;;;9.30;100.00;164877.91;5047802;28;20052;-69
2021/12/31 00:24:54;;;;;;;1999.90;999.90;;;;;;;9.25;100.00;164864.19;5048011;28;20064;-68
2021/12/31 00:27:20;;;;;;;1999.90;999.90;;;;;;;9.14;100.00;164835.25;5047094;28;20515;-68
2021/12/31 00:29:47;;;;;;;1999.90;999.90;;;;;;;9.37;100.00;164897.19;5047532;28;20044;-69
2021/12/31 00:32:13;;;;;;;1999.90;999.90;;;;;;;9.19;100.00;164847.69;5051342;28;20045;-69
2021/12/31 00:34:40;;;;;;;1999.90;999.90;;;;;;;9.34;100.00;164890.31;5047075;28;20449;-69
2021/12/31 00:37:06;;;;;;;1999.90;999.90;;;;;;;9.34;100.00;164888.94;5048367;28;20076;-69
2021/12/31 00:39:33;;;;;;;1999.90;999.90;;;;;;;9.47;100.00;164924.72;5048042;28;20208;-69
2021/12/31 00:41:59;;;;;;;1999.90;999.90;;;;;;;9.31;100.00;164880.69;5047291;28;20228;-69
2021/12/31 00:44:26;;;;;;;1999.90;999.90;;;;;;;9.30;100.00;164879.31;5048261;28;20068;-68
2021/12/31 00:46:53;;;;;;;1999.90;999.90;;;;;;;9.40;100.00;164905.44;5048971;28;20045;-69
2021/12/31 00:49:19;;;;;;;1999.90;999.90;;;;;;;9.30;100.00;164879.31;5047538;28;20138;-69
2021/12/31 00:51:46;;;;;;;1999.90;999.90;;;;;;;9.25;100.00;164865.53;5047788;28;20088;-69
2021/12/31 00:54:13;;;;;;;1999.90;999.90;;;;;;;9.05;100.00;164811.91;5049101;28;20102;-69
2021/12/31 00:56:39;;;;;;;1999.90;999.90;;;;;;;9.13;100.00;164833.88;5046755;28;20122;-70
2021/12/31 00:59:06;;;;;;;1999.90;999.90;;;;;;;9.41;100.00;164908.22;5048533;28;20094;-70
2021/12/31 01:01:35;;;;;;;1999.90;999.90;;;;;;;9.27;100.00;164869.66;5047895;28;20057;-69
2021/12/31 01:04:02;;;;;;;1999.90;999.90;;;;;;;9.06;100.00;164813.25;5045165;28;20342;-69
2021/12/31 01:06:28;;;;;;;1999.90;999.90;;;;;;;9.25;100.00;164864.19;5048406;28;20141;-70
2021/12/31 01:08:55;;;;;;;1999.90;999.90;;;;;;;9.30;100.00;164877.91;5046729;28;20083;-69
2021/12/31 01:11:22;;;;;;;1999.90;999.90;;;;;;;9.36;100.00;164894.44;5048349;28;20057;-69
2021/12/31 01:16:17;;;;;;;1999.90;999.90;;;;;;;8.94;100.00;164782.97;5046917;28;20099;-69
2021/12/31 01:21:21;;;;;;;1999.90;999.90;;;;;;;9.16;100.00;164840.78;5048176;28;20069;-69
2021/12/31 01:23:49;;;;;;;1999.90;999.90;;;;;;;9.19;100.00;164849.03;5046660;28;20052;-69
2021/12/31 01:26:17;;;;;;;1999.90;999.90;;;;;;;9.22;100.00;164855.94;5048223;28;20434;-69
2021/12/31 01:28:43;;;;;;;1999.90;999.90;;;;;;;9.42;100.00;164910.94;5048790;28;20049;-69
2021/12/31 01:31:10;;;;;;;1999.90;999.90;;;;;;;9.50;100.00;164932.97;5051089;28;20048;-69
2021/12/31 01:33:37;;;;;;;1999.90;999.90;;;;;;;9.58;100.00;164952.25;5052388;28;20053;-69
2021/12/31 01:36:05;;;;;;;1999.90;999.90;;;;;;;9.49;100.00;164930.19;5051006;28;20080;-69
2021/12/31 01:38:32;;;;;;;1999.90;999.90;;;;;;;9.46;100.00;164920.59;5050646;28;20409;-69
2021/12/31 01:40:58;;;;;;;1999.90;999.90;;;;;;;9.34;100.00;164888.94;5051276;28;20076;-69
2021/12/31 01:43:25;;;;;;;1999.90;999.90;;;;;;;9.40;100.00;164905.44;5050636;28;20076;-69
2021/12/31 01:45:55;;;;;;;1999.90;999.90;;;;;;;9.43;100.00;164913.69;5050787;28;20102;-69
2021/12/31 01:48:35;;;;;;;1999.90;999.90;;;;;;;9.50;100.00;164932.97;5051570;28;20049;-69
2021/12/31 01:51:03;;;;;;;1999.90;999.90;;;;;;;9.64;100.00;164968.75;5050023;28;20523;-69
2021/12/31 01:53:31;;;;;;;1999.90;999.90;;;;;;;9.16;100.00;164842.16;5051423;28;20076;-68
2021/12/31 01:56:00;;;;;;;1999.90;999.90;;;;;;;9.42;100.00;164910.94;5051751;28;20053;-68
2021/12/31 01:58:27;;;;;;;1999.90;999.90;;;;;;;9.52;100.00;164938.47;5050018;28;20403;-69
2021/12/31 02:00:54;;;;;;;1999.90;999.90;;;;;;;9.57;100.00;164949.47;5048750;28;20041;-69
2021/12/31 02:03:23;;;;;;;1999.90;999.90;;;;;;;9.51;100.00;164935.75;5051972;28;20080;-69
2021/12/31 02:05:50;;;;;;;1999.90;999.90;;;;;;;9.46;100.00;164921.94;5049610;28;20049;-68
2021/12/31 02:08:18;;;;;;;1999.90;999.90;;;;;;;9.50;100.00;164932.97;5050716;28;20339;-69
2021/12/31 02:10:49;;;;;;;1999.90;999.90;;;;;;;9.51;100.00;164935.75;5050554;28;20048;-69
2021/12/31 02:13:17;;;;;;;1999.90;999.90;;;;;;;9.59;100.00;164955.03;5050104;28;20114;-70
2021/12/31 02:15:44;;;;;;;1999.90;999.90;;;;;;;9.65;100.00;164972.88;5051793;28;20076;-69
2021/12/31 02:18:11;;;;;;;1999.90;999.90;;;;;;;9.58;100.00;164953.59;5049557;28;20442;-70
2021/12/31 02:20:48;;;;;;;1999.90;999.90;;;;;;;9.73;100.00;164992.16;5050025;28;20075;-69
2021/12/31 02:23:15;;;;;;;1999.90;999.90;;;;;;;9.72;100.00;164989.41;5051432;28;20384;-69
2021/12/31 02:25:41;;;;;;;1999.90;999.90;;;;;;;9.63;100.00;164966.00;5049958;28;20103;-68
2021/12/31 02:28:08;;;;;;;1999.90;999.90;;;;;;;9.80;100.00;165012.81;5049482;28;20515;-68
2021/12/31 02:30:35;;;;;;;1999.90;999.90;;;;;;;9.83;100.00;165019.69;5050631;28;20091;-68
2021/12/31 02:33:03;;;;;;;1999.90;999.90;;;;;;;9.71;100.00;164988.03;5048630;28;20049;-67
2021/12/31 02:35:32;;;;;;;1999.90;999.90;;;;;;;9.63;100.00;164966.00;5050506;28;20099;-69
2021/12/31 02:37:59;;;;;;;1999.90;999.90;;;;;;;9.43;100.00;164913.69;5050300;28;20049;-68
2021/12/31 02:40:28;;;;;;;1999.90;999.90;;;;;;;9.47;100.00;164924.72;5049040;28;20048;-67
2021/12/31 02:42:56;;;;;;;1999.90;999.90;;;;;;;9.61;100.00;164960.50;5049965;28;20099;-68
2021/12/31 02:45:30;;;;;;;1999.90;999.90;;;;;;;9.40;100.00;164904.09;5050645;28;20437;-67
2021/12/31 02:48:00;;;;;;;1999.90;999.90;;;;;;;9.22;100.00;164855.94;5048687;28;20130;-67
2021/12/31 02:50:33;;;;;;;1999.90;999.90;;;;;;;8.61;100.00;164693.59;5050198;28;20080;-67
2021/12/31 02:53:06;;;;;;;1999.90;999.90;;;;;;;8.76;100.00;164733.47;5050271;28;20083;-67
2021/12/31 02:55:35;;;;;;;1999.90;999.90;;;;;;;9.02;100.00;164802.25;5043324;28;20457;-67
2021/12/31 02:58:04;;;;;;;1999.90;999.90;;;;;;;9.22;100.00;164857.28;5050106;28;20405;-67
2021/12/31 03:00:32;;;;;;;1999.90;999.90;;;;;;;9.31;100.00;164880.69;5049530;28;20430;-67
2021/12/31 03:02:59;;;;;;;1999.90;999.90;;;;;;;9.58;100.00;164953.59;5049187;28;20537;-67
2021/12/31 03:05:28;;;;;;;1999.90;999.90;;;;;;;9.76;100.00;165001.78;5050653;28;20412;-67
2021/12/31 03:07:57;;;;;;;1999.90;999.90;;;;;;;9.64;100.00;164970.13;5048139;28;20072;-67
2021/12/31 03:10:26;;;;;;;1999.90;999.90;;;;;;;9.75;100.00;164999.06;5047228;28;20053;-67
2021/12/31 03:12:54;;;;;;;1999.90;999.90;;;;;;;9.72;100.00;164990.81;5050240;28;20122;-67
2021/12/31 03:15:21;;;;;;;1999.90;999.90;;;;;;;9.75;100.00;164999.06;5049151;28;20500;-68
2021/12/31 03:17:47;;;;;;;1999.90;999.90;;;;;;;9.62;100.00;164963.28;5048721;28;20434;-68
2021/12/31 03:20:25;;;;;;;1999.90;999.90;;;;;;;9.82;100.00;165016.94;5049509;28;20045;-69
2021/12/31 03:22:52;;;;;;;1999.90;999.90;;;;;;;9.49;100.00;164930.19;5044818;28;20045;-68
2021/12/31 03:25:19;;;;;;;1999.90;999.90;;;;;;;9.82;100.00;165016.94;5049700;28;20099;-68
2021/12/31 03:27:45;;;;;;;1999.90;999.90;;;;;;;9.72;100.00;164989.41;5049748;28;20504;-68
2021/12/31 03:30:13;;;;;;;1999.90;999.90;;;;;;;9.82;100.00;165018.28;5048821;28;20052;-69
2021/12/31 03:32:40;;;;;;;1999.90;999.90;;;;;;;9.86;100.00;165029.31;5049613;28;20045;-69
2021/12/31 03:35:07;;;;;;;1999.90;999.90;;;;;;;9.71;100.00;164988.03;5066187;28;20048;-69
2021/12/31 03:37:33;;;;;;;1999.90;999.90;;;;;;;9.62;100.00;164963.28;5047860;28;20080;-69
2021/12/31 03:40:00;;;;;;;1999.90;999.90;;;;;;;9.46;100.00;164921.94;5049645;28;20053;-69
2021/12/31 03:42:27;;;;;;;1999.90;999.90;;;;;;;9.17;100.00;164843.56;5048695;28;20107;-69
2021/12/31 03:44:54;;;;;;;1999.90;999.90;;;;;;;9.08;100.00;164820.16;5048432;28;20394;-69
2021/12/31 03:47:20;;;;;;;1999.90;999.90;;;;;;;8.86;100.00;164761.00;5048703;28;20080;-69
2021/12/31 03:49:47;;;;;;;1999.90;999.90;;;;;;;8.83;100.00;164752.75;5047886;28;20082;-69
2021/12/31 03:52:14;;;;;;;1999.90;999.90;;;;;;;8.90;100.00;164770.59;5047855;28;20110;-69
2021/12/31 03:54:40;;;;;;;1999.90;999.90;;;;;;;8.98;100.00;164792.63;5050123;28;20124;-69
2021/12/31 03:57:07;;;;;;;1999.90;999.90;;;;;;;9.04;100.00;164809.13;5047719;28;20053;-68
2021/12/31 03:59:33;;;;;;;1999.90;999.90;;;;;;;9.07;100.00;164817.38;5048725;28;20049;-68
2021/12/31 04:02:00;;;;;;;1999.90;999.90;;;;;;;9.06;100.00;164813.25;5047944;28;20507;-68
2021/12/31 04:04:27;;;;;;;1999.90;999.90;;;;;;;9.26;100.00;164868.31;5047401;28;20433;-68
2021/12/31 04:06:54;;;;;;;1999.90;999.90;;;;;;;9.18;100.00;164844.91;5048828;28;20083;-68
2021/12/31 04:09:20;;;;;;;1999.90;999.90;;;;;;;8.92;100.00;164776.13;5048402;28;20115;-68
2021/12/31 04:11:47;;;;;;;1999.90;999.90;;;;;;;8.87;100.00;164762.34;5047969;28;20069;-68
2021/12/31 04:14:13;;;;;;;1999.90;999.90;;;;;;;8.73;100.00;164726.59;5034297;28;20098;-68
2021/12/31 04:16:40;;;;;;;1999.90;999.90;;;;;;;8.57;100.00;164682.56;5047427;28;20090;-68
2021/12/31 04:19:06;;;;;;;1999.90;999.90;;;;;;;8.60;100.00;164692.22;5047895;28;20058;-68
2021/12/31 04:21:34;;;;;;;1999.90;999.90;;;;;;;8.89;100.00;164769.25;5048974;28;20061;-68
2021/12/31 04:24:07;;;;;;;1999.90;999.90;;;;;;;9.01;100.00;164799.47;5047311;28;20103;-68
2021/12/31 04:26:34;;;;;;;1999.90;999.90;;;;;;;9.16;100.00;164840.78;5048351;28;20346;-68
2021/12/31 04:29:00;;;;;;;1999.90;999.90;;;;;;;8.99;100.00;164796.75;5048946;28;20065;-68
2021/12/31 04:31:27;;;;;;;1999.90;999.90;;;;;;;8.88;100.00;164766.47;5047449;28;20418;-68
2021/12/31 04:33:54;;;;;;;1999.90;999.90;;;;;;;8.86;100.00;164759.56;5047673;28;20420;-68
2021/12/31 04:36:21;;;;;;;1999.90;999.90;;;;;;;8.98;100.00;164792.63;5047953;28;20068;-68
2021/12/31 04:38:47;;;;;;;1999.90;999.90;;;;;;;8.80;100.00;164745.84;5048046;28;20049;-68
2021/12/31 04:41:14;;;;;;;1999.90;999.90;;;;;;;8.48;100.00;164657.81;5049066;28;20080;-68
2021/12/31 04:43:40;;;;;;;1999.90;999.90;;;;;;;8.58;100.00;164685.34;5047588;28;20081;-68
2021/12/31 04:46:07;;;;;;;1999.90;999.90;;;;;;;8.79;100.00;164741.72;5047558;28;20045;-68
2021/12/31 04:48:33;;;;;;;1999.90;999.90;;;;;;;8.67;100.00;164710.09;5048323;28;20055;-68
2021/12/31 04:51:00;;;;;;;1999.90;999.90;;;;;;;8.79;100.00;164743.09;5047258;28;20186;-68
2021/12/31 04:53:26;;;;;;;1999.90;999.90;;;;;;;8.69;100.00;164715.56;5048390;28;20363;-68
2021/12/31 04:55:53;;;;;;;1999.90;999.90;;;;;;;8.57;100.00;164683.94;5048503;28;20061;-68
2021/12/31 04:58:19;;;;;;;1999.90;999.90;;;;;;;8.74;100.00;164729.34;5047350;28;20057;-68
2021/12/31 05:00:46;;;;;;;1999.90;999.90;;;;;;;8.71;100.00;164721.09;5029034;28;20342;-68
2021/12/31 05:03:14;;;;;;;1999.90;999.90;;;;;;;8.84;100.00;164754.09;5048618;28;20472;-68
2021/12/31 05:05:41;;;;;;;1999.90;999.90;;;;;;;8.88;100.00;164765.13;5051003;28;20095;-68
2021/12/31 05:08:07;;;;;;;1999.90;999.90;;;;;;;8.93;100.00;164778.84;5051953;28;20076;-68
2021/12/31 05:10:34;;;;;;;1999.90;999.90;;;;;;;8.80;100.00;164745.84;5052134;28;20057;-69
2021/12/31 05:13:03;;;;;;;1999.90;999.90;;;;;;;8.69;100.00;164715.56;5051372;28;20048;-68
2021/12/31 05:15:38;;;;;;;1999.90;999.90;;;;;;;9.00;100.00;164798.13;5052552;28;20080;-68
2021/12/31 05:18:04;;;;;;;1999.90;999.90;;;;;;;9.15;100.00;164839.44;5050467;28;20049;-68
2021/12/31 05:20:31;;;;;;;1999.90;999.90;;;;;;;9.07;100.00;164817.38;5051976;28;20085;-68
2021/12/31 05:23:00;;;;;;;1999.90;999.90;;;;;;;9.10;100.00;164825.63;5052379;28;20460;-68
2021/12/31 05:25:27;;;;;;;1999.90;999.90;;;;;;;9.47;100.00;164924.72;5050602;28;20041;-68
2021/12/31 05:27:54;;;;;;;1999.90;999.90;;;;;;;10.00;100.00;165066.50;5051466;28;20048;-68
2021/12/31 05:30:21;;;;;;;1999.90;999.90;;;;;;;10.00;100.00;165065.09;5052108;28;20052;-68
2021/12/31 05:32:48;;;;;;;1999.90;999.90;;;;;;;9.86;100.00;165029.31;5050067;28;20349;-68
2021/12/31 05:35:15;;;;;;;1999.90;999.90;;;;;;;10.03;100.00;165073.38;5051245;28;20041;-68
2021/12/31 05:37:41;;;;;;;1999.90;999.90;;;;;;;9.96;100.00;165054.06;5051597;28;20087;-68
2021/12/31 05:40:08;;;;;;;1999.90;999.90;;;;;;;10.21;100.00;165122.94;5050389;28;20057;-69
2021/12/31 05:42:35;;;;;;;1999.90;999.90;;;;;;;10.19;100.00;165117.41;5052502;28;20577;-69
2021/12/31 05:45:02;;;;;;;1999.90;999.90;;;;;;;10.20;100.00;165118.81;5050293;28;20130;-69
2021/12/31 05:47:29;;;;;;;1999.90;999.90;;;;;;;10.09;100.00;165089.88;5050601;28;20048;-69
2021/12/31 05:49:55;;;;;;;1999.90;999.90;;;;;;;10.12;100.00;165096.78;5052096;28;20117;-69
2021/12/31 05:52:22;;;;;;;1999.90;999.90;;;;;;;10.34;100.00;165157.41;5050501;28;20076;-69
2021/12/31 05:54:48;;;;;;;1999.90;999.90;;;;;;;10.30;100.00;165146.38;5050399;28;20098;-69
2021/12/31 05:57:15;;;;;;;1999.90;999.90;;;;;;;10.34;100.00;165157.41;5051688;28;20473;-69
2021/12/31 05:59:41;;;;;;;1999.90;999.90;;;;;;;10.22;100.00;165124.31;5049667;28;20408;-69
2021/12/31 06:02:08;;;;;;;1999.90;999.90;;;;;;;10.24;100.00;165129.78;5051176;28;20060;-69
2021/12/31 06:04:37;;;;;;;1999.90;999.90;;;;;;;10.25;100.00;165131.22;5050836;28;20044;-69
2021/12/31 06:07:08;;;;;;;1999.90;999.90;;;;;;;10.11;100.00;165095.41;5050279;28;20429;-69
2021/12/31 06:09:34;;;;;;;1999.90;999.90;;;;;;;10.17;100.00;165111.94;5051105;28;20085;-69
2021/12/31 06:12:01;;;;;;;1999.90;999.90;;;;;;;10.11;100.00;165095.41;5051458;28;20320;-69
2021/12/31 06:14:30;;;;;;;1999.90;999.90;;;;;;;9.80;100.00;165012.81;5049964;28;20103;-69
2021/12/31 06:17:02;;;;;;;1999.90;999.90;;;;;;;9.81;100.00;165015.56;5050174;28;20068;-69
2021/12/31 06:19:29;;;;;;;1999.90;999.90;;;;;;;9.48;100.00;164927.50;5050302;28;20048;-69
2021/12/31 06:21:55;;;;;;;1999.90;999.90;;;;;;;9.45;100.00;164917.81;5049821;28;20087;-69
2021/12/31 06:24:25;;;;;;;1999.90;999.90;;;;;;;9.19;100.00;164847.69;5051401;28;20106;-69
2021/12/31 06:26:52;;;;;;;1999.90;999.90;;;;;;;9.24;100.00;164861.41;5048864;28;20052;-69
2021/12/31 06:29:19;;;;;;;1999.90;999.90;;;;;;;9.34;100.00;164888.94;5051090;28;20080;-69
2021/12/31 06:31:45;;;;;;;1999.90;999.90;;;;;;;9.45;100.00;164919.25;5050620;28;20084;-69
2021/12/31 06:34:12;;;;;;;1999.90;999.90;;;;;;;9.39;100.00;164901.31;5049113;28;20049;-69
2021/12/31 06:36:39;;;;;;;1999.90;999.90;;;;;;;9.20;100.00;164850.41;5048957;28;20092;-69
2021/12/31 06:39:05;;;;;;;1999.90;999.90;;;;;;;9.42;100.00;164910.94;5050541;28;20506;-69
2021/12/31 06:41:32;;;;;;;1999.90;999.90;;;;;;;9.56;100.00;164946.72;5048898;28;20076;-69
2021/12/31 06:43:58;;;;;;;1999.90;999.90;;;;;;;9.50;100.00;164932.97;5050522;28;20092;-69
2021/12/31 06:46:25;;;;;;;1999.90;999.90;;;;;;;9.55;100.00;164945.34;5048653;28;20467;-69
2021/12/31 06:48:51;;;;;;;1999.90;999.90;;;;;;;9.52;100.00;164938.47;5049385;28;20055;-69
2021/12/31 06:51:18;;;;;;;1999.90;999.90;;;;;;;9.71;100.00;164988.03;5050424;28;20464;-69
2021/12/31 06:53:44;;;;;;;1999.90;999.90;;;;;;;9.46;100.00;164920.59;5048968;28;20080;-69
2021/12/31 06:56:11;;;;;;;1999.90;999.90;;;;;;;9.57;100.00;164949.47;5050059;28;20076;-69
2021/12/31 06:58:38;;;;;;;1999.90;999.90;;;;;;;9.68;100.00;164981.13;5049493;28;20099;-69
2021/12/31 07:01:05;;;;;;;1999.90;999.90;;;;;;;9.76;100.00;165001.78;5048232;28;20076;-69
2021/12/31 07:03:32;;;;;;;1999.90;999.90;;;;;;;9.82;100.00;165018.28;5049474;28;20558;-69
2021/12/31 07:05:59;;;;;;;1999.90;999.90;;;;;;;9.24;100.00;164861.41;5050000;28;20099;-69
2021/12/31 07:08:26;;;;;;;1999.90;999.90;;;;;;;9.08;100.00;164820.16;5046880;28;20122;-68
2021/12/31 07:10:52;;;;;;;1999.90;999.90;;;;;;;9.27;100.00;164869.66;5049679;28;20079;-68
2021/12/31 07:13:19;;;;;;;1999.90;999.90;;;;;;;9.42;100.00;164909.56;5048219;28;20044;-68
2021/12/31 07:15:49;;;;;;;1999.90;999.90;;;;;;;9.62;100.00;164964.63;5049186;28;20103;-68
2021/12/31 07:18:17;;;;;;;1999.90;999.90;;;;;;;9.61;100.00;164960.50;5049902;28;20055;-68
2021/12/31 07:20:44;;;;;;;1999.90;999.90;;;;;;;9.57;100.00;164949.47;5048467;28;20080;-68
2021/12/31 07:23:14;;;;;;;1999.90;999.90;;;;;;;9.65;100.00;164971.53;5048549;28;20064;-68
2021/12/31 07:25:41;;;;;;;1999.90;999.90;;;;;;;9.59;100.00;164955.03;5050081;28;20098;-68
2021/12/31 07:28:09;;;;;;;1999.90;999.90;;;;;;;9.48;100.00;164927.50;5047632;28;20096;-68
2021/12/31 07:30:37;;;;;;;1999.90;999.90;;;;;;;9.27;100.00;164869.66;5048971;28;20080;-68
2021/12/31 07:33:04;;;;;;;1999.90;999.90;;;;;;;9.69;100.00;164982.50;5048499;28;20106;-68
2021/12/31 07:35:31;;;;;;;1999.90;999.90;;;;;;;9.86;100.00;165029.31;5047909;28;20045;-68
2021/12/31 07:37:59;;;;;;;1999.90;999.90;;;;;;;9.92;100.00;165044.47;5049457;28;20096;-68
2021/12/31 07:40:37;;;;;;;1999.90;999.90;;;;;;;10.16;100.00;165109.16;5049061;28;20049;-68
2021/12/31 07:43:05;;;;;;;1999.90;999.90;;;;;;;10.20;100.00;165118.81;5048301;28;20057;-68
2021/12/31 07:45:32;;;;;;;1999.90;999.90;;;;;;;10.21;100.00;165121.53;5048961;28;20045;-68
2021/12/31 07:47:59;;;;;;;1999.90;999.90;;;;;;;9.86;100.00;165029.31;5048037;28;20345;-68
2021/12/31 07:50:26;;;;;;;1999.90;999.90;;;;;;;9.77;100.00;165004.53;5047889;28;20081;-68
2021/12/31 07:52:53;;;;;;;1999.90;999.90;;;;;;;9.77;100.00;165003.19;5049440;28;20221;-68
2021/12/31 07:55:20;;;;;;;1999.90;999.90;;;;;;;9.76;100.00;165000.41;5048591;28;20052;-68
2021/12/31 07:57:46;;;;;;;1999.90;999.90;;;;;;;9.78;100.00;165007.31;5047991;28;20049;-68
2021/12/31 08:00:13;;;;;;;1999.90;999.90;;;;;;;9.58;100.00;164953.59;5048944;28;20053;-68
2021/12/31 08:02:40;;;;;;;1999.90;999.90;;;;;;;9.67;100.00;164977.00;5047599;28;20067;-68
2021/12/31 08:05:07;;;;;;;1999.90;999.90;;;;;;;9.61;100.00;164961.84;5048584;28;20079;-68
2021/12/31 08:07:34;;;;;;;1999.90;999.90;;;;;;;9.94;100.00;165048.59;5049601;28;20330;-68
2021/12/31 08:10:03;;;;;;;1999.90;999.90;;;;;;;9.76;100.00;165001.78;5047687;28;20106;-68
2021/12/31 08:12:49;;;;;;;1999.90;999.90;;;;;;;9.89;100.00;165036.22;5047462;28;20049;-68
2021/12/31 08:15:16;;;;;;;1999.90;999.90;;;;;;;9.98;100.00;165059.63;5049382;28;20076;-68
2021/12/31 08:17:42;;;;;;;1999.90;999.90;;;;;;;9.84;100.00;165023.81;5047237;28;20076;-68
2021/12/31 08:20:09;;;;;;;1999.90;999.90;;;;;;;10.02;100.00;165070.66;5048811;28;20080;-68
2021/12/31 08:22:36;;;;;;;1999.90;999.90;;;;;;;9.87;100.00;165032.06;5048482;28;20111;-68
2021/12/31 08:25:03;;;;;;;1999.90;999.90;;;;;;;9.89;100.00;165036.22;5048396;28;20300;-68
2021/12/31 08:27:30;;;;;;;1999.90;999.90;;;;;;;9.99;100.00;165063.75;5048810;28;20479;-68
2021/12/31 08:29:56;;;;;;;1999.90;999.90;;;;;;;10.09;100.00;165089.88;5046782;28;20057;-68
2021/12/31 08:32:23;;;;;;;1999.90;999.90;;;;;;;10.12;100.00;165098.13;5047658;28;20369;-68
2021/12/31 08:34:50;;;;;;;1999.90;999.90;;;;;;;10.04;100.00;165076.13;5048243;28;20048;-68
2021/12/31 08:37:16;;;;;;;1999.90;999.90;;;;;;;10.23;100.00;165127.09;5048064;28;20083;-68
2021/12/31 08:39:43;;;;;;;1999.90;999.90;;;;;;;10.20;100.00;165120.19;5052156;28;20060;-67
2021/12/31 08:42:09;;;;;;;1999.90;999.90;;;;;;;10.13;100.00;165100.91;5052944;28;20049;-68
2021/12/31 08:44:36;;;;;;;1999.90;999.90;;;;;;;10.06;100.00;165081.63;5051558;28;20049;-68
2021/12/31 08:47:02;;;;;;;1999.90;999.90;;;;;;;10.35;100.00;165160.16;5051571;28;20115;-67
2021/12/31 08:49:29;;;;;;;1999.90;999.90;;;;;;;10.04;100.00;165076.13;5051997;28;20056;-67
2021/12/31 08:51:56;;;;;;;1999.90;999.90;;;;;;;10.07;100.00;165083.03;5052083;28;20100;-67
2021/12/31 08:54:23;;;;;;;1999.90;999.90;;;;;;;9.89;100.00;165034.84;5053083;28;20080;-67
2021/12/31 08:56:49;;;;;;;1999.90;999.90;;;;;;;9.91;100.00;165041.69;5050675;28;20055;-67
2021/12/31 08:59:20;;;;;;;1999.90;999.90;;;;;;;10.27;100.00;165136.69;5051827;28;20084;-68
2021/12/31 09:01:47;;;;;;;1999.90;999.90;;;;;;;10.63;100.00;165233.13;5052465;28;20052;-67
2021/12/31 09:04:14;;;;;;;1999.90;999.90;;;;;;;10.15;100.00;165105.03;5051243;28;20135;-67
2021/12/31 09:06:40;;;;;;;1999.90;999.90;;;;;;;9.94;100.00;165049.94;5051695;28;20044;-67
2021/12/31 09:09:07;;;;;;;1999.90;999.90;;;;;;;10.04;100.00;165076.13;5051791;28;20084;-67
2021/12/31 09:11:33;;;;;;;1999.90;999.90;;;;;;;9.86;100.00;165029.31;5051411;28;20153;-68
2021/12/31 09:14:00;;;;;;;1999.90;999.90;;;;;;;10.13;100.00;165100.91;5051694;28;20045;-67
2021/12/31 09:16:27;;;;;;;1999.90;999.90;;;;;;;10.43;100.00;165179.44;5051808;28;20049;-67
2021/12/31 09:18:53;;;;;;;1999.90;999.90;;;;;;;10.35;100.00;165160.16;5050671;28;20532;-67
2021/12/31 09:21:22;;;;;;;1999.90;999.90;;;;;;;10.57;100.00;165219.38;5051735;28;20408;-68
2021/12/31 09:23:49;;;;;;;1999.90;999.90;;;;;;;10.02;100.00;165070.66;5052976;28;20057;-68
2021/12/31 09:26:16;;;;;;;1999.90;999.90;;;;;;;10.01;100.00;165067.88;5051252;28;20107;-68
2021/12/31 09:28:43;;;;;;;1999.90;999.90;;;;;;;10.06;100.00;165081.63;5052778;28;20041;-68
2021/12/31 09:31:10;;;;;;;1999.90;999.90;;;;;;;10.02;100.00;165070.66;5051190;28;20085;-68
2021/12/31 09:33:37;;;;;;;1999.90;999.90;;;;;;;10.21;100.00;165122.94;5051533;28;20045;-69
2021/12/31 09:36:04;;;;;;;1999.90;999.90;;;;;;;9.99;100.00;165062.38;5052281;28;20222;-67
2021/12/31 09:38:31;;;;;;;1999.90;999.90;;;;;;;10.17;100.00;165111.94;5050980;28;20499;-67
2021/12/31 09:40:57;;;;;;;1999.90;999.90;;;;;;;10.36;100.00;165162.94;5051047;28;20072;-67
2021/12/31 09:43:24;;;;;;;1999.90;999.90;;;;;;;10.48;100.00;165194.59;5051600;28;20131;-67
2021/12/31 09:45:52;;;;;;;1999.90;999.90;;;;;;;10.32;100.00;165151.84;5050183;28;20094;-67
2021/12/31 09:48:21;;;;;;;1999.90;999.90;;;;;;;10.43;100.00;165180.81;5051935;28;20061;-67
2021/12/31 09:50:50;;;;;;;1999.90;999.90;;;;;;;10.55;100.00;165212.50;5051260;28;20076;-67
2021/12/31 09:53:18;;;;;;;1999.90;999.90;;;;;;;10.33;100.00;165153.22;5050225;28;20458;-67
2021/12/31 09:55:53;;;;;;;1999.90;999.90;;;;;;;10.30;100.00;165144.97;5052363;28;20076;-67
2021/12/31 09:58:23;;;;;;;1999.90;999.90;;;;;;;10.37;100.00;165164.28;5050569;28;20073;-67
2021/12/31 10:00:54;;;;;;;1999.90;999.90;;;;;;;10.38;100.00;165167.06;5050976;28;20053;-68
2021/12/31 10:03:25;;;;;;;1999.90;999.90;;;;;;;10.53;100.00;165208.34;5051328;28;20045;-68
2021/12/31 10:05:54;;;;;;;1999.90;999.90;;;;;;;10.48;100.00;165194.59;5051719;28;20052;-68
2021/12/31 10:08:26;;;;;;;1999.90;999.90;;;;;;;10.77;100.00;165271.72;5033000;28;20438;-68
2021/12/31 10:11:04;;;;;;;1999.90;999.90;;;;;;;10.47;100.00;165190.47;5050619;28;20071;-68
2021/12/31 10:13:32;;;;;;;1999.90;999.90;;;;;;;10.43;100.00;165179.44;5050895;28;20049;-67
2021/12/31 10:15:59;;;;;;;1999.90;999.90;;;;;;;10.51;100.00;165201.47;5051123;28;20053;-68
2021/12/31 10:18:34;;;;;;;1999.90;999.90;;;;;;;10.71;100.00;165255.19;5050787;28;20045;-68
2021/12/31 10:21:03;;;;;;;1999.90;999.90;;;;;;;10.59;100.00;165223.53;5048886;28;20053;-68
2021/12/31 10:23:30;;;;;;;1999.90;999.90;;;;;;;10.42;100.00;165178.09;5064893;28;20072;-68
2021/12/31 10:26:06;;;;;;;1999.90;999.90;;;;;;;10.73;100.00;165260.69;5051428;28;20402;-68
2021/12/31 10:28:34;;;;;;;1999.90;999.90;;;;;;;10.68;100.00;165246.94;5048483;28;20397;-68
2021/12/31 10:31:12;;;;;;;1999.90;999.90;;;;;;;10.77;100.00;165270.34;5049946;28;20045;-68
2021/12/31 10:33:41;;;;;;;1999.90;999.90;;;;;;;10.79;100.00;165277.22;5050710;28;20053;-68
2021/12/31 10:36:07;;;;;;;1999.90;999.90;;;;;;;10.97;100.00;165324.03;5049101;28;20091;-68
2021/12/31 10:38:36;;;;;;;1999.90;999.90;;;;;;;11.35;100.00;165426.03;5048897;28;20045;-68
2021/12/31 10:41:05;;;;;;;1999.90;999.90;;;;;;;11.11;100.00;165362.66;5050688;28;20139;-68
2021/12/31 10:43:31;;;;;;;1999.90;999.90;;;;;;;11.01;100.00;165335.09;5048589;28;20050;-68
2021/12/31 10:46:08;;;;;;;1999.90;999.90;;;;;;;10.96;100.00;165321.34;5050899;28;20049;-68
2021/12/31 10:48:49;;;;;;;1999.90;999.90;;;;;;;10.96;100.00;165321.34;5050375;28;20468;-67
2021/12/31 10:51:18;;;;;;;1999.90;999.90;;;;;;;10.71;100.00;165256.56;5046456;28;20049;-67
2021/12/31 10:53:51;;;;;;;1999.90;999.90;;;;;;;10.96;100.00;165321.34;5043562;28;20049;-67